Time;durP1;ratioP1;P1;durP2;ratioP2;P2;SDS_P1;SDS_P2;PMS_P1;PMS_P2;Temp;Humidity;BMP_temperature;BMP_pressure;BME280_temperature;BME280_humidity;BME280_pressure;Samples;Min_cycle;Max_cycle;Signal;HPM_P1;HPM_P2
2024/04/10 04:07:43;;;;;;;0.30;0.30;;;7.60;99.90;;;;;;5307405;22;20330;-60
2024/04/10 04:10:08;;;;;;;0.40;0.40;;;7.60;99.90;;;;;;5180090;27;20242;-60
2024/04/10 04:12:34;;;;;;;0.30;0.30;;;7.70;99.90;;;;;;5151384;27;20230;-61
2024/04/10 04:15:00;;;;;;;0.37;0.37;;;7.70;99.90;;;;;;5180025;27;20225;-60
2024/04/10 04:17:25;;;;;;;0.40;0.40;;;7.70;99.90;;;;;;5151778;27;20230;-61
2024/04/10 04:19:51;;;;;;;0.30;0.30;;;7.70;99.90;;;;;;5180332;27;20222;-61
2024/04/10 04:22:16;;;;;;;0.40;0.40;;;7.70;99.90;;;;;;5180200;27;20226;-61
2024/04/10 04:24:42;;;;;;;0.40;0.40;;;7.80;99.90;;;;;;5179854;27;20229;-60
2024/04/10 04:27:08;;;;;;;0.30;0.30;;;7.80;99.90;;;;;;5180584;27;20268;-60
2024/04/10 04:29:33;;;;;;;0.43;0.43;;;7.80;99.90;;;;;;5180363;27;20226;-61
2024/04/10 04:31:59;;;;;;;0.33;0.33;;;7.90;99.90;;;;;;5180441;27;20226;-60
2024/04/10 04:34:25;;;;;;;0.47;0.47;;;7.90;99.90;;;;;;5180383;27;20230;-61
2024/04/10 04:36:50;;;;;;;0.40;0.40;;;7.90;99.90;;;;;;5178421;27;20728;-60
2024/04/10 04:39:16;;;;;;;0.30;0.30;;;7.90;99.90;;;;;;5179992;27;20265;-61
2024/04/10 04:41:41;;;;;;;0.40;0.40;;;8.00;99.90;;;;;;5179941;27;20230;-60
2024/04/10 04:44:07;;;;;;;0.30;0.30;;;8.00;99.90;;;;;;5179806;27;20284;-60
2024/04/10 04:46:33;;;;;;;0.40;0.40;;;8.10;99.90;;;;;;5150991;27;20751;-61
2024/04/10 04:48:58;;;;;;;0.50;0.50;;;8.10;99.90;;;;;;5180356;27;20423;-62
2024/04/10 04:51:24;;;;;;;0.50;0.50;;;8.10;99.90;;;;;;5180924;27;20222;-62
2024/04/10 04:53:49;;;;;;;0.43;0.43;;;8.10;99.90;;;;;;5179938;27;20226;-61
2024/04/10 04:56:15;;;;;;;0.43;0.43;;;8.20;99.90;;;;;;5179700;27;20345;-62
2024/04/10 04:58:41;;;;;;;0.40;0.40;;;8.20;99.90;;;;;;5179995;27;20743;-61
2024/04/10 05:01:07;;;;;;;0.30;0.30;;;8.20;99.90;;;;;;5179828;27;20450;-61
2024/04/10 05:06:17;;;;;;;0.30;0.30;;;8.30;99.90;;;;;;5146995;27;20522;-61
2024/04/10 05:08:42;;;;;;;0.77;0.77;;;8.30;99.90;;;;;;5147051;27;20235;-61
2024/04/10 05:11:09;;;;;;;0.40;0.40;;;8.40;99.90;;;;;;5146246;27;20223;-62
2024/04/10 05:13:35;;;;;;;0.30;0.30;;;8.40;99.90;;;;;;5147253;27;20236;-61
2024/04/10 05:16:01;;;;;;;0.30;0.30;;;8.50;99.90;;;;;;5147042;27;20231;-61
2024/04/10 05:18:27;;;;;;;0.40;0.40;;;8.60;99.90;;;;;;5153891;27;20269;-61
2024/04/10 05:20:52;;;;;;;0.40;0.40;;;8.70;99.90;;;;;;5150053;27;20234;-62
2024/04/10 05:23:18;;;;;;;0.40;0.40;;;8.80;99.90;;;;;;5179044;27;20309;-63
2024/04/10 05:25:45;;;;;;;0.33;0.33;;;8.80;99.90;;;;;;5178556;27;20268;-62
2024/04/10 05:28:11;;;;;;;0.38;0.38;;;9.00;99.90;;;;;;5178969;27;20579;-64
2024/04/10 05:30:37;;;;;;;0.40;0.40;;;9.10;99.90;;;;;;5179278;27;20230;-64
2024/04/10 05:33:03;;;;;;;0.40;0.40;;;9.30;99.90;;;;;;5178789;27;20251;-61
2024/04/10 05:35:28;;;;;;;0.85;0.85;;;9.60;99.90;;;;;;5150251;27;20269;-65
2024/04/10 05:37:55;;;;;;;0.40;0.40;;;9.80;99.90;;;;;;5178784;27;20235;-65
2024/04/10 05:40:21;;;;;;;0.30;0.30;;;10.10;99.90;;;;;;5179150;27;20288;-61
2024/04/10 05:42:47;;;;;;;0.30;0.30;;;10.50;99.90;;;;;;5179218;27;20455;-62
2024/04/10 05:45:14;;;;;;;0.30;0.30;;;10.80;99.90;;;;;;5178789;27;20216;-61
2024/04/10 05:47:41;;;;;;;0.40;0.40;;;11.00;99.90;;;;;;5178741;27;20584;-65
2024/04/10 05:50:10;;;;;;;0.30;0.30;;;11.30;99.90;;;;;;5178937;27;20808;-66
2024/04/10 05:52:39;;;;;;;0.30;0.30;;;11.70;99.90;;;;;;5178429;27;20959;-63
2024/04/10 05:55:05;;;;;;;1.93;1.03;;;12.00;99.90;;;;;;5149874;27;20454;-62
2024/04/10 05:57:30;;;;;;;0.30;0.30;;;12.10;99.90;;;;;;5178104;27;21036;-64
2024/04/10 05:59:57;;;;;;;0.30;0.30;;;12.20;99.90;;;;;;5178820;27;20495;-61
2024/04/10 06:02:24;;;;;;;0.50;0.50;;;12.30;99.90;;;;;;5178862;27;20233;-69
2024/04/10 06:04:53;;;;;;;0.30;0.30;;;12.30;98.80;;;;;;5177686;27;20435;-62
2024/04/10 06:07:19;;;;;;;0.30;0.30;;;12.10;98.80;;;;;;5178443;27;20498;-66
2024/04/10 06:09:44;;;;;;;0.30;0.30;;;11.90;99.70;;;;;;5178684;27;20465;-61
2024/04/10 06:12:10;;;;;;;0.30;0.30;;;11.80;99.70;;;;;;5177929;27;20318;-64
2024/04/10 06:14:36;;;;;;;0.30;0.30;;;11.70;99.50;;;;;;5149032;27;20284;-64
2024/04/10 06:17:02;;;;;;;0.37;0.37;;;11.60;99.50;;;;;;5177156;27;20245;-65
2024/04/10 06:19:27;;;;;;;0.30;0.30;;;11.50;99.90;;;;;;5178929;27;20429;-67
2024/04/10 06:21:53;;;;;;;0.47;0.47;;;11.50;99.90;;;;;;5178896;27;20340;-64
2024/04/10 06:24:21;;;;;;;0.30;0.30;;;11.40;99.90;;;;;;5177455;27;20328;-64
2024/04/10 06:26:46;;;;;;;0.30;0.30;;;11.40;99.90;;;;;;5178378;27;20246;-64
2024/04/10 06:29:12;;;;;;;0.37;0.37;;;11.30;99.90;;;;;;5176730;27;20575;-65
2024/04/10 06:31:39;;;;;;;0.30;0.30;;;11.20;99.90;;;;;;5177434;27;20339;-60
2024/04/10 06:34:06;;;;;;;0.30;0.30;;;11.10;99.90;;;;;;5178473;27;20437;-65
2024/04/10 06:36:32;;;;;;;0.30;0.30;;;11.10;99.90;;;;;;5178231;27;20486;-65
2024/04/10 06:38:58;;;;;;;0.30;0.30;;;11.10;99.90;;;;;;5179298;27;20489;-66
2024/04/10 06:41:24;;;;;;;0.40;0.40;;;11.10;99.90;;;;;;5178976;27;20461;-64
2024/04/10 06:45:22;;;;;;;0.30;0.30;;;11.10;99.90;;;;;;5507950;25;20665;-65
2024/04/10 06:47:48;;;;;;;0.30;0.30;;;11.30;99.90;;;;;;5472021;26;20437;-65
2024/04/10 06:50:14;;;;;;;0.30;0.30;;;11.30;99.90;;;;;;5472936;26;20745;-61
2024/04/10 06:52:39;;;;;;;0.30;0.30;;;11.30;99.90;;;;;;5471670;26;20256;-61
2024/04/10 06:55:06;;;;;;;0.37;0.37;;;11.30;99.90;;;;;;5470986;26;20283;-62
2024/04/10 06:57:32;;;;;;;0.40;0.40;;;11.50;99.90;;;;;;5472102;26;20240;-65
2024/04/10 07:00:02;;;;;;;0.30;0.30;;;11.50;99.90;;;;;;5472053;26;20483;-63
2024/04/10 07:02:28;;;;;;;0.30;0.30;;;11.60;99.90;;;;;;5471843;26;20800;-63
2024/04/10 07:04:54;;;;;;;0.30;0.30;;;11.70;99.90;;;;;;5471463;26;20478;-64
2024/04/10 07:07:19;;;;;;;0.30;0.30;;;11.70;99.90;;;;;;5471843;26;20635;-61
2024/04/10 07:09:45;;;;;;;0.50;0.50;;;11.80;99.90;;;;;;5471540;26;20256;-64
2024/04/10 07:12:12;;;;;;;0.40;0.40;;;11.70;99.60;;;;;;5471504;26;20223;-62
2024/04/10 07:14:41;;;;;;;0.30;0.30;;;11.70;99.90;;;;;;5471432;26;20252;-64
2024/04/10 07:17:07;;;;;;;0.30;0.30;;;11.80;99.90;;;;;;5471856;26;20464;-61
2024/04/10 07:19:34;;;;;;;2.20;2.10;;;12.00;99.90;;;;;;5471655;26;21028;-63
2024/04/10 07:22:06;;;;;;;0.30;0.30;;;12.10;99.50;;;;;;5471435;26;20281;-64
2024/04/10 07:24:32;;;;;;;0.40;0.40;;;12.20;99.20;;;;;;5471260;26;20796;-61
2024/04/10 07:26:57;;;;;;;0.30;0.30;;;12.30;99.20;;;;;;5471342;26;20455;-62
2024/04/10 07:29:23;;;;;;;0.33;0.33;;;12.50;98.50;;;;;;5471553;26;20214;-61
2024/04/10 07:31:49;;;;;;;0.30;0.30;;;12.60;98.10;;;;;;5471571;26;20299;-61
2024/04/10 07:34:17;;;;;;;0.30;0.30;;;12.70;98.00;;;;;;5469189;26;20572;-63
2024/04/10 07:36:43;;;;;;;0.40;0.40;;;12.80;97.60;;;;;;5470747;26;20248;-62
2024/04/10 07:39:10;;;;;;;0.30;0.30;;;13.00;97.40;;;;;;5471369;26;20440;-61
2024/04/10 07:41:37;;;;;;;0.40;0.40;;;13.10;97.60;;;;;;5471341;26;20451;-65
2024/04/10 07:44:04;;;;;;;0.30;0.30;;;13.10;96.70;;;;;;5471232;26;20466;-61
2024/04/10 07:46:30;;;;;;;0.30;0.30;;;13.10;96.80;;;;;;5471449;26;20479;-65
2024/04/10 07:48:57;;;;;;;0.40;0.40;;;13.10;96.90;;;;;;5469592;26;20960;-62
2024/04/10 07:51:25;;;;;;;0.30;0.30;;;12.90;96.70;;;;;;5469333;26;20230;-65
2024/04/10 07:53:50;;;;;;;0.30;0.30;;;12.90;97.10;;;;;;5470484;26;20447;-65
2024/04/10 07:56:17;;;;;;;0.30;0.30;;;12.90;96.90;;;;;;5456287;26;20944;-63
2024/04/10 07:58:43;;;;;;;0.30;0.30;;;13.00;97.10;;;;;;5455359;26;20414;-61
2024/04/10 08:01:09;;;;;;;0.30;0.30;;;13.10;97.20;;;;;;5453570;26;20426;-64
2024/04/10 08:03:35;;;;;;;0.30;0.30;;;13.20;97.00;;;;;;5455315;26;20503;-65
2024/04/10 08:06:06;;;;;;;0.40;0.40;;;13.30;96.70;;;;;;5454647;26;20481;-62
2024/04/10 08:08:32;;;;;;;0.37;0.37;;;13.40;96.70;;;;;;5455245;26;20525;-62
2024/04/10 08:11:07;;;;;;;0.30;0.30;;;13.60;96.60;;;;;;5454990;26;20423;-62
2024/04/10 08:13:33;;;;;;;1.23;0.50;;;13.90;96.30;;;;;;5455138;26;20423;-61
2024/04/10 08:16:05;;;;;;;0.30;0.30;;;14.10;95.70;;;;;;5454779;26;20445;-64
2024/04/10 08:18:32;;;;;;;0.30;0.30;;;14.40;94.50;;;;;;5455131;26;20487;-68
2024/04/10 08:21:05;;;;;;;0.30;0.30;;;14.50;94.10;;;;;;5454890;26;21027;-61
2024/04/10 08:23:33;;;;;;;0.30;0.30;;;14.70;93.80;;;;;;5455169;26;20507;-67
2024/04/10 08:25:59;;;;;;;0.40;0.40;;;14.90;93.90;;;;;;5454465;26;20440;-64
2024/04/10 08:28:25;;;;;;;0.30;0.30;;;15.20;93.80;;;;;;5455010;26;20416;-61
2024/04/10 08:30:55;;;;;;;0.30;0.30;;;15.50;93.00;;;;;;5455114;26;20500;-63
2024/04/10 08:33:22;;;;;;;0.30;0.30;;;15.80;93.20;;;;;;5455280;26;20458;-65
2024/04/10 08:35:59;;;;;;;0.30;0.30;;;15.90;91.90;;;;;;5452806;26;20561;-63
2024/04/10 08:38:26;;;;;;;0.30;0.30;;;15.90;91.80;;;;;;5454950;26;20545;-60
2024/04/10 08:40:53;;;;;;;0.30;0.30;;;16.10;91.60;;;;;;5454892;26;20439;-63
2024/04/10 08:43:22;;;;;;;0.60;0.60;;;16.60;91.40;;;;;;5452772;26;20744;-64
2024/04/10 08:45:48;;;;;;;0.53;0.53;;;17.20;90.90;;;;;;5454272;26;20490;-67
2024/04/10 08:48:16;;;;;;;0.50;0.50;;;17.70;89.20;;;;;;5454942;26;20443;-62
2024/04/10 08:50:42;;;;;;;0.30;0.30;;;18.10;88.20;;;;;;5454854;26;20463;-64
2024/04/10 08:53:11;;;;;;;0.30;0.20;;;18.50;86.20;;;;;;5454659;26;21016;-63
2024/04/10 08:55:38;;;;;;;0.30;0.30;;;19.00;83.20;;;;;;5453890;26;20332;-63
2024/04/10 08:58:04;;;;;;;0.30;0.30;;;19.30;81.50;;;;;;5454327;26;20437;-64
2024/04/10 09:00:30;;;;;;;0.30;0.30;;;19.50;80.00;;;;;;5454484;26;21087;-66
2024/04/10 09:02:58;;;;;;;0.47;0.37;;;19.60;80.70;;;;;;5454221;26;20225;-67
2024/04/10 09:05:27;;;;;;;0.30;0.30;;;19.80;78.80;;;;;;5454083;26;20213;-66
2024/04/10 09:08:02;;;;;;;0.30;0.30;;;19.80;77.50;;;;;;5452422;26;20865;-66
2024/04/10 09:10:29;;;;;;;0.30;0.30;;;20.10;77.80;;;;;;5452875;26;20482;-67
2024/04/10 09:13:13;;;;;;;0.30;0.30;;;20.60;76.60;;;;;;5453897;26;20431;-66
2024/04/10 09:15:39;;;;;;;0.30;0.30;;;20.40;76.00;;;;;;5453156;26;20325;-67
2024/04/10 09:18:08;;;;;;;0.40;0.40;;;20.40;73.30;;;;;;5452189;26;20431;-67
2024/04/10 09:20:34;;;;;;;0.30;0.20;;;20.40;76.30;;;;;;5452690;26;20338;-67
2024/04/10 09:23:05;;;;;;;0.30;0.20;;;20.80;75.80;;;;;;5453801;26;20968;-67
2024/04/10 09:25:32;;;;;;;0.40;0.40;;;20.80;70.60;;;;;;5453369;26;20544;-67
2024/04/10 09:28:05;;;;;;;0.30;0.30;;;21.10;72.40;;;;;;5453482;26;20513;-67
2024/04/10 09:30:32;;;;;;;0.60;0.60;;;21.20;73.30;;;;;;5454187;26;20454;-67
2024/04/10 09:32:59;;;;;;;0.30;0.20;;;21.50;71.70;;;;;;5454101;26;20451;-67
2024/04/10 09:35:26;;;;;;;0.30;0.30;;;22.20;71.10;;;;;;5453548;26;20423;-67
2024/04/10 09:37:59;;;;;;;0.40;0.40;;;23.20;69.40;;;;;;5453830;26;20972;-67
2024/04/10 09:40:33;;;;;;;0.30;0.30;;;24.10;65.70;;;;;;5453988;26;20494;-68
2024/04/10 09:43:07;;;;;;;0.30;0.30;;;23.70;65.30;;;;;;5453321;26;20446;-67
2024/04/10 09:45:37;;;;;;;1.33;1.23;;;22.70;65.10;;;;;;5452952;26;20428;-69
2024/04/10 09:48:09;;;;;;;0.30;0.30;;;21.20;66.40;;;;;;5453329;26;20443;-67
2024/04/10 09:50:39;;;;;;;0.30;0.30;;;19.70;68.40;;;;;;5453651;26;20442;-66
2024/04/10 09:53:07;;;;;;;0.50;0.50;;;18.90;71.50;;;;;;5451573;26;20453;-62
2024/04/10 09:55:33;;;;;;;0.30;0.20;;;18.60;74.20;;;;;;5453101;26;20437;-66
2024/04/10 09:58:03;;;;;;;0.30;0.30;;;18.70;75.10;;;;;;5453288;26;20492;-63
2024/04/10 10:00:30;;;;;;;0.30;0.30;;;18.50;74.20;;;;;;5453500;26;20479;-65
2024/04/10 10:03:09;;;;;;;0.30;0.30;;;18.40;73.80;;;;;;5453382;26;20419;-62
2024/04/10 10:05:36;;;;;;;0.30;0.30;;;18.90;75.10;;;;;;5452828;26;20408;-62
2024/04/10 10:08:05;;;;;;;0.30;0.30;;;19.30;72.90;;;;;;5453106;26;20443;-63
2024/04/10 10:10:45;;;;;;;0.30;0.30;;;19.80;68.20;;;;;;5453206;26;20501;-63
2024/04/10 10:13:12;;;;;;;0.30;0.20;;;20.40;65.90;;;;;;5453766;26;20795;-61
2024/04/10 10:15:39;;;;;;;0.40;0.40;;;21.10;66.70;;;;;;5452542;26;20471;-68
2024/04/10 10:18:05;;;;;;;0.30;0.30;;;21.70;63.60;;;;;;5452587;26;20431;-62
2024/04/10 10:20:32;;;;;;;0.40;0.30;;;22.40;61.80;;;;;;5451331;26;20577;-66
2024/04/10 10:23:00;;;;;;;0.30;0.20;;;22.80;62.40;;;;;;5452970;26;20257;-67
2024/04/10 10:25:26;;;;;;;0.30;0.20;;;22.90;57.80;;;;;;5452581;26;20539;-67
2024/04/10 10:28:03;;;;;;;0.40;0.30;;;23.00;59.60;;;;;;5452762;26;20443;-68
2024/04/10 10:30:28;;;;;;;0.30;0.30;;;23.50;61.90;;;;;;5453112;26;20447;-67
2024/04/10 10:33:02;;;;;;;0.30;0.30;;;24.30;60.30;;;;;;5452605;26;20495;-69
2024/04/10 10:35:27;;;;;;;0.33;0.33;;;24.90;59.20;;;;;;5452906;26;20221;-63
2024/04/10 10:37:55;;;;;;;0.30;0.30;;;25.20;59.10;;;;;;5453156;26;20837;-63
2024/04/10 10:40:20;;;;;;;0.30;0.30;;;25.60;58.20;;;;;;5453024;26;20520;-68
2024/04/10 10:42:46;;;;;;;0.30;0.20;;;26.00;57.60;;;;;;5452692;26;20495;-67
2024/04/10 10:45:12;;;;;;;0.30;0.20;;;25.30;54.90;;;;;;5452176;26;20292;-64
2024/04/10 10:47:39;;;;;;;0.30;0.20;;;24.60;55.50;;;;;;5452932;26;20567;-68
2024/04/10 10:50:05;;;;;;;0.30;0.30;;;23.60;54.50;;;;;;5452538;26;20498;-60
2024/04/10 10:52:31;;;;;;;0.30;0.30;;;22.90;55.30;;;;;;5452650;26;20448;-68
2024/04/10 10:54:57;;;;;;;0.30;0.20;;;22.70;55.00;;;;;;5452189;26;20553;-63
2024/04/10 10:57:23;;;;;;;0.30;0.30;;;22.40;57.00;;;;;;5451237;26;20989;-64
2024/04/10 10:59:49;;;;;;;0.30;0.30;;;21.60;56.70;;;;;;5452246;26;20616;-64
2024/04/10 11:02:15;;;;;;;0.30;0.20;;;20.90;58.50;;;;;;5452269;26;20447;-62
2024/04/10 11:04:41;;;;;;;0.97;0.40;;;20.40;58.40;;;;;;5451878;26;20214;-62
2024/04/10 11:07:07;;;;;;;0.30;0.20;;;20.00;60.00;;;;;;5452140;26;20529;-61
2024/04/10 11:09:33;;;;;;;0.40;0.40;;;19.50;61.90;;;;;;5452733;26;20213;-65
2024/04/10 11:12:01;;;;;;;0.30;0.30;;;19.30;62.90;;;;;;5452395;26;20529;-63
2024/04/10 11:14:27;;;;;;;0.40;0.40;;;19.30;62.10;;;;;;5452108;26;20225;-63
2024/04/10 11:16:59;;;;;;;0.30;0.30;;;19.40;61.40;;;;;;5452256;26;20471;-64
2024/04/10 11:19:25;;;;;;;0.30;0.30;;;19.20;62.80;;;;;;5451727;26;20214;-67
2024/04/10 11:21:51;;;;;;;0.30;0.20;;;19.20;63.60;;;;;;5451813;26;20483;-63
2024/04/10 11:24:17;;;;;;;0.30;0.30;;;18.90;59.10;;;;;;5451701;26;20467;-63
2024/04/10 11:26:42;;;;;;;0.30;0.30;;;18.60;59.50;;;;;;5451445;26;20256;-61
2024/04/10 11:29:08;;;;;;;0.40;0.40;;;18.00;62.10;;;;;;5451802;26;20267;-64
2024/04/10 11:31:33;;;;;;;0.30;0.30;;;17.80;66.50;;;;;;5454615;26;20227;-61
2024/04/10 11:33:59;;;;;;;0.40;0.37;;;17.80;66.00;;;;;;5455040;26;20295;-69
2024/04/10 11:36:25;;;;;;;0.40;0.40;;;17.50;65.70;;;;;;5454545;26;20382;-67
2024/04/10 11:38:50;;;;;;;0.30;0.30;;;17.30;65.90;;;;;;5455598;26;20256;-67
2024/04/10 11:41:17;;;;;;;0.30;0.30;;;17.00;67.70;;;;;;5455390;26;20420;-65
2024/04/10 11:43:44;;;;;;;0.30;0.30;;;17.10;71.20;;;;;;5454841;26;20267;-67
2024/04/10 11:46:10;;;;;;;0.30;0.30;;;17.40;68.90;;;;;;5454659;26;20810;-61
2024/04/10 11:48:37;;;;;;;0.40;0.40;;;17.60;65.30;;;;;;5455210;26;20443;-60
2024/04/10 11:51:03;;;;;;;0.30;0.30;;;17.30;62.70;;;;;;5454885;26;20284;-64
2024/04/10 11:53:30;;;;;;;0.30;0.30;;;17.10;65.40;;;;;;5455337;26;20403;-62
2024/04/10 11:55:56;;;;;;;0.30;0.30;;;16.80;67.00;;;;;;5454578;26;20471;-66
2024/04/10 11:58:21;;;;;;;0.30;0.30;;;16.70;66.80;;;;;;5454836;26;21004;-66
2024/04/10 12:00:47;;;;;;;0.30;0.30;;;16.60;67.20;;;;;;5454843;26;20715;-62
2024/04/10 12:03:13;;;;;;;0.30;0.30;;;16.40;67.20;;;;;;5454639;26;20225;-60
2024/04/10 12:05:38;;;;;;;0.30;0.30;;;16.30;68.30;;;;;;5454463;26;20218;-65
2024/04/10 12:08:04;;;;;;;0.30;0.30;;;16.20;71.00;;;;;;5454901;26;20684;-60
2024/04/10 12:10:31;;;;;;;0.90;0.60;;;16.20;72.20;;;;;;5454914;26;20221;-66
2024/04/10 12:12:58;;;;;;;0.77;0.77;;;16.10;71.60;;;;;;5453055;26;20229;-61
2024/04/10 12:15:23;;;;;;;0.30;0.30;;;15.80;71.30;;;;;;5452923;26;20411;-65
2024/04/10 12:17:50;;;;;;;0.50;0.40;;;15.50;71.70;;;;;;5454473;26;20457;-60
2024/04/10 12:20:16;;;;;;;0.30;0.30;;;15.30;71.90;;;;;;5452945;26;20266;-61
2024/04/10 12:22:42;;;;;;;0.30;0.30;;;15.20;71.20;;;;;;5454836;26;20422;-64
2024/04/10 12:25:08;;;;;;;0.30;0.30;;;14.90;71.10;;;;;;5454245;26;20226;-64
2024/04/10 12:27:33;;;;;;;0.30;0.30;;;14.80;70.70;;;;;;5454513;26;20577;-65
2024/04/10 12:29:59;;;;;;;0.30;0.30;;;14.70;71.40;;;;;;5454456;26;20413;-61
2024/04/10 12:32:25;;;;;;;0.30;0.30;;;14.70;72.30;;;;;;5454139;26;20254;-68
2024/04/10 12:34:52;;;;;;;0.30;0.30;;;14.80;75.00;;;;;;5454199;26;20224;-60
2024/04/10 12:40:03;;;;;;;0.30;0.30;;;15.40;72.10;;;;;;5455120;26;20552;-64
2024/04/10 12:42:29;;;;;;;0.30;0.30;;;15.70;73.10;;;;;;5451063;26;20480;-64
2024/04/10 12:44:54;;;;;;;0.30;0.30;;;16.00;72.30;;;;;;5450572;26;20439;-65
2024/04/10 12:47:20;;;;;;;0.47;0.47;;;16.20;68.10;;;;;;5451208;26;20308;-68
2024/04/10 12:49:45;;;;;;;0.30;0.30;;;16.00;67.10;;;;;;5451125;26;20226;-62
2024/04/10 12:52:11;;;;;;;0.40;0.40;;;15.90;68.60;;;;;;5451052;26;20229;-66
2024/04/10 12:54:37;;;;;;;0.30;0.30;;;15.70;67.40;;;;;;5450280;26;20232;-59
2024/04/10 12:57:03;;;;;;;0.40;0.40;;;15.70;71.10;;;;;;5450997;26;20682;-63
2024/04/10 12:59:29;;;;;;;0.30;0.30;;;15.90;73.50;;;;;;5454057;26;20226;-61
2024/04/10 13:01:55;;;;;;;0.30;0.30;;;16.10;72.00;;;;;;5454361;26;20419;-66
2024/04/10 13:04:21;;;;;;;0.43;0.43;;;16.40;72.30;;;;;;5453989;26;20257;-61
2024/04/10 13:06:47;;;;;;;0.30;0.30;;;16.50;71.00;;;;;;5453527;26;20466;-67
2024/04/10 13:09:13;;;;;;;0.30;0.30;;;16.70;70.90;;;;;;5454096;26;20470;-69
2024/04/10 13:11:38;;;;;;;0.60;0.40;;;16.80;68.10;;;;;;5454029;26;20214;-60
2024/04/10 13:14:04;;;;;;;0.30;0.30;;;16.80;65.80;;;;;;5453881;26;20232;-65
2024/04/10 13:16:30;;;;;;;0.30;0.30;;;16.60;67.50;;;;;;5453620;26;20225;-60
2024/04/10 13:18:55;;;;;;;0.30;0.30;;;16.40;67.00;;;;;;5454039;26;20322;-68
2024/04/10 13:21:21;;;;;;;0.30;0.30;;;16.40;67.00;;;;;;5454208;26;20217;-60
2024/04/10 13:23:47;;;;;;;0.30;0.30;;;16.30;66.50;;;;;;5454038;26;20229;-68
2024/04/10 13:26:14;;;;;;;0.30;0.20;;;16.20;66.50;;;;;;5453574;26;20226;-62
2024/04/10 13:28:42;;;;;;;0.30;0.30;;;16.00;67.60;;;;;;5454080;26;20737;-67
2024/04/10 13:31:16;;;;;;;0.30;0.30;;;15.80;70.40;;;;;;5454186;26;20428;-63
2024/04/10 13:33:43;;;;;;;0.30;0.30;;;15.70;71.50;;;;;;5453868;26;20468;-66
2024/04/10 13:36:12;;;;;;;0.30;0.30;;;15.70;69.20;;;;;;5453239;26;20457;-60
2024/04/10 13:38:42;;;;;;;0.30;0.30;;;15.60;69.40;;;;;;5453806;26;20832;-67
2024/04/10 13:41:09;;;;;;;0.30;0.30;;;15.60;69.20;;;;;;5453510;26;20414;-66
2024/04/10 13:43:35;;;;;;;0.30;0.30;;;15.50;71.50;;;;;;5453583;26;20470;-66
2024/04/10 13:46:04;;;;;;;0.30;0.30;;;15.40;68.60;;;;;;5452945;26;20515;-68
2024/04/10 13:48:33;;;;;;;0.30;0.30;;;15.40;68.30;;;;;;5453645;26;20445;-62
2024/04/10 13:50:59;;;;;;;0.30;0.30;;;15.30;68.40;;;;;;5453565;26;20824;-65
2024/04/10 13:53:25;;;;;;;0.60;0.60;;;15.10;69.40;;;;;;5452609;26;20862;-66
2024/04/10 13:55:51;;;;;;;0.30;0.30;;;15.10;69.00;;;;;;5453361;26;20472;-67
2024/04/10 13:58:17;;;;;;;0.30;0.30;;;15.20;69.00;;;;;;5454381;26;20500;-66
2024/04/10 14:00:43;;;;;;;0.40;0.40;;;15.20;68.00;;;;;;5453619;26;20250;-60
2024/04/10 14:03:08;;;;;;;0.30;0.30;;;15.20;68.20;;;;;;5457334;26;20508;-61
2024/04/10 14:05:34;;;;;;;0.30;0.30;;;15.30;69.70;;;;;;5455726;26;20211;-61
2024/04/10 14:08:00;;;;;;;0.30;0.30;;;15.30;69.80;;;;;;5454653;26;20219;-60
2024/04/10 14:10:26;;;;;;;0.50;0.50;;;15.40;70.30;;;;;;5453517;26;20222;-66
2024/04/10 14:12:53;;;;;;;0.30;0.30;;;15.40;68.50;;;;;;5453430;26;20231;-66
2024/04/10 14:15:19;;;;;;;0.30;0.30;;;15.40;70.10;;;;;;5453046;26;20847;-63
2024/04/10 14:17:45;;;;;;;0.30;0.30;;;15.40;67.30;;;;;;5453247;26;20520;-61
2024/04/10 14:20:10;;;;;;;0.30;0.30;;;15.50;66.70;;;;;;5453471;26;20445;-59
2024/04/10 14:22:40;;;;;;;0.30;0.30;;;15.50;68.40;;;;;;5452862;26;20263;-64
2024/04/10 14:25:08;;;;;;;0.30;0.30;;;15.50;67.90;;;;;;5452793;26;20224;-63
2024/04/10 14:27:33;;;;;;;0.30;0.30;;;15.50;67.10;;;;;;5453070;26;20473;-68
2024/04/10 14:29:59;;;;;;;0.30;0.30;;;15.50;65.50;;;;;;5453014;26;20534;-62
2024/04/10 14:32:24;;;;;;;0.33;0.33;;;15.40;67.70;;;;;;5452960;26;20785;-68
2024/04/10 14:34:50;;;;;;;0.30;0.30;;;15.40;65.40;;;;;;5452793;26;20210;-60
2024/04/10 14:37:16;;;;;;;0.30;0.20;;;15.20;63.30;;;;;;5452871;26;20234;-69
2024/04/10 14:39:42;;;;;;;0.43;0.40;;;15.20;63.70;;;;;;5452972;26;20496;-61
2024/04/10 14:42:08;;;;;;;0.30;0.30;;;15.30;63.60;;;;;;5452892;26;20849;-69
2024/04/10 14:44:45;;;;;;;0.30;0.30;;;15.40;64.60;;;;;;5452534;26;20776;-61
2024/04/10 14:47:11;;;;;;;0.30;0.30;;;15.40;64.60;;;;;;5452781;26;20234;-65
2024/04/10 14:49:37;;;;;;;0.30;0.30;;;15.60;65.10;;;;;;5452447;26;20534;-69
2024/04/10 14:52:04;;;;;;;0.47;0.47;;;15.70;63.30;;;;;;5452440;26;20459;-65
2024/04/10 14:54:29;;;;;;;0.30;0.20;;;15.80;63.70;;;;;;5452421;26;20502;-61
2024/04/10 14:56:58;;;;;;;0.30;0.30;;;15.70;64.30;;;;;;5452639;26;20464;-67
2024/04/10 14:59:24;;;;;;;0.33;0.33;;;15.70;63.60;;;;;;5452664;26;20228;-66
2024/04/10 15:01:50;;;;;;;0.30;0.20;;;15.60;62.60;;;;;;5452267;26;20559;-62
2024/04/10 15:04:20;;;;;;;0.30;0.30;;;15.70;64.40;;;;;;5452700;26;20327;-63
2024/04/10 15:06:46;;;;;;;0.30;0.30;;;15.80;65.70;;;;;;5455656;26;20470;-61
2024/04/10 15:09:13;;;;;;;0.30;0.30;;;15.80;63.80;;;;;;5455773;26;20489;-63
2024/04/10 15:11:39;;;;;;;0.40;0.40;;;15.70;63.50;;;;;;5455849;26;20443;-64
2024/04/10 15:14:04;;;;;;;0.30;0.30;;;15.60;63.80;;;;;;5455723;26;20505;-66
2024/04/10 15:16:30;;;;;;;0.30;0.30;;;15.50;64.20;;;;;;5455586;26;20274;-61
2024/04/10 15:18:57;;;;;;;0.30;0.30;;;15.50;64.10;;;;;;5456055;26;20223;-64
2024/04/10 15:21:23;;;;;;;0.30;0.30;;;15.50;64.00;;;;;;5455883;26;20214;-60
2024/04/10 15:23:48;;;;;;;0.30;0.30;;;15.70;64.60;;;;;;5455596;26;20482;-68
2024/04/10 15:26:14;;;;;;;0.30;0.30;;;15.70;62.80;;;;;;5455262;26;20252;-62
2024/04/10 15:28:40;;;;;;;0.50;0.40;;;15.80;62.10;;;;;;5455879;26;20273;-64
2024/04/10 15:31:07;;;;;;;0.50;0.40;;;15.80;63.70;;;;;;5455721;26;20260;-61
2024/04/10 15:33:37;;;;;;;0.30;0.30;;;15.90;61.70;;;;;;5455850;26;20439;-67
2024/04/10 15:36:05;;;;;;;0.30;0.30;;;16.00;63.10;;;;;;5455457;26;20449;-60
2024/04/10 15:38:34;;;;;;;0.30;0.30;;;16.10;63.20;;;;;;5455496;26;20480;-66
2024/04/10 15:41:02;;;;;;;0.30;0.30;;;16.20;64.90;;;;;;5455653;26;20423;-67
2024/04/10 15:43:28;;;;;;;0.30;0.30;;;16.40;63.70;;;;;;5455068;26;20447;-68
2024/04/10 15:45:56;;;;;;;0.30;0.30;;;16.50;63.70;;;;;;5455008;26;20480;-62
2024/04/10 15:48:22;;;;;;;0.30;0.30;;;16.70;63.50;;;;;;5455527;26;20446;-64
2024/04/10 15:50:53;;;;;;;0.30;0.30;;;16.80;60.00;;;;;;5455379;26;20967;-62
2024/04/10 15:53:20;;;;;;;0.30;0.30;;;16.80;59.90;;;;;;5454714;26;21043;-65
2024/04/10 15:55:45;;;;;;;0.30;0.30;;;16.90;61.30;;;;;;5454271;26;20549;-66
2024/04/10 15:58:11;;;;;;;0.30;0.30;;;16.90;62.80;;;;;;5453721;26;20451;-61
2024/04/10 16:00:37;;;;;;;0.30;0.30;;;17.00;63.40;;;;;;5455180;26;20319;-68
2024/04/10 16:03:03;;;;;;;0.30;0.30;;;17.00;61.60;;;;;;5455414;26;20210;-60
2024/04/10 16:05:36;;;;;;;0.30;0.20;;;17.00;62.80;;;;;;5454733;26;20213;-64
2024/04/10 16:08:04;;;;;;;0.30;0.30;;;17.10;62.80;;;;;;5454938;26;20543;-64
2024/04/10 16:10:36;;;;;;;0.30;0.20;;;17.00;63.40;;;;;;5455191;26;20447;-65
2024/04/10 16:13:02;;;;;;;0.30;0.30;;;17.00;63.60;;;;;;5455327;26;20754;-61
2024/04/10 16:15:27;;;;;;;0.30;0.30;;;17.00;61.00;;;;;;5453747;26;20451;-60
2024/04/10 16:17:53;;;;;;;0.30;0.30;;;16.90;60.50;;;;;;5454407;26;20498;-60
2024/04/10 16:20:28;;;;;;;0.30;0.30;;;16.90;60.60;;;;;;5453391;26;20595;-64
2024/04/10 16:22:53;;;;;;;0.30;0.30;;;16.80;61.00;;;;;;5454968;26;20598;-62
2024/04/10 16:25:26;;;;;;;0.30;0.30;;;16.80;61.60;;;;;;5454599;26;20549;-66
2024/04/10 16:27:52;;;;;;;0.30;0.30;;;16.70;60.80;;;;;;5455053;26;20658;-60
2024/04/10 16:30:23;;;;;;;0.30;0.30;;;16.50;60.20;;;;;;5454813;26;20530;-64
2024/04/10 16:32:53;;;;;;;0.30;0.30;;;16.50;59.90;;;;;;5455290;26;20261;-61
2024/04/10 16:35:26;;;;;;;0.33;0.33;;;16.40;60.10;;;;;;5454362;26;20420;-65
2024/04/10 16:37:52;;;;;;;0.40;0.40;;;16.20;60.10;;;;;;5454077;26;21026;-64
2024/04/10 16:40:18;;;;;;;0.30;0.20;;;16.10;60.90;;;;;;5454950;26;20540;-67
2024/04/10 16:42:43;;;;;;;0.30;0.30;;;16.10;61.60;;;;;;5454559;26;20510;-63
2024/04/10 16:45:09;;;;;;;0.30;0.30;;;16.00;61.60;;;;;;5454268;26;20603;-65
2024/04/10 16:47:36;;;;;;;0.30;0.30;;;15.90;61.40;;;;;;5454479;26;20371;-62
2024/04/10 16:50:05;;;;;;;0.30;0.30;;;16.00;61.90;;;;;;5452804;26;20498;-61
2024/04/10 16:52:31;;;;;;;0.40;0.40;;;16.00;63.00;;;;;;5454733;26;20449;-66
2024/04/10 16:54:57;;;;;;;0.30;0.30;;;15.90;63.70;;;;;;5454077;26;20556;-62
2024/04/10 16:57:23;;;;;;;0.30;0.30;;;15.80;61.70;;;;;;5454327;26;20331;-69
2024/04/10 16:59:49;;;;;;;0.40;0.40;;;15.80;63.10;;;;;;5454546;26;20646;-63